sensor_id;sensor_type;location;lat;lon;timestamp;P1;durP1;ratioP1;P2;durP2;ratioP2
5297;SDS011;14738;42.668;23.250;2022-11-20T00:02:20;2.90;;;1.43;;
5297;SDS011;14738;42.668;23.250;2022-11-20T00:04:45;6.53;;;1.87;;
5297;SDS011;14738;42.668;23.250;2022-11-20T00:07:10;3.37;;;2.00;;
5297;SDS011;14738;42.668;23.250;2022-11-20T00:09:36;2.80;;;1.80;;
5297;SDS011;14738;42.668;23.250;2022-11-20T00:12:01;1.93;;;1.83;;
5297;SDS011;14738;42.668;23.250;2022-11-20T00:14:26;6.87;;;2.33;;
5297;SDS011;14738;42.668;23.250;2022-11-20T00:16:51;1.57;;;1.47;;
5297;SDS011;14738;42.668;23.250;2022-11-20T00:19:17;7.03;;;1.93;;
5297;SDS011;14738;42.668;23.250;2022-11-20T00:21:42;2.97;;;1.73;;
5297;SDS011;14738;42.668;23.250;2022-11-20T00:24:08;1.83;;;1.50;;
5297;SDS011;14738;42.668;23.250;2022-11-20T00:26:34;3.20;;;1.60;;
5297;SDS011;14738;42.668;23.250;2022-11-20T00:29:00;3.50;;;1.70;;
5297;SDS011;14738;42.668;23.250;2022-11-20T00:31:25;3.60;;;1.87;;
5297;SDS011;14738;42.668;23.250;2022-11-20T00:33:51;3.97;;;2.30;;
5297;SDS011;14738;42.668;23.250;2022-11-20T00:36:18;3.27;;;1.60;;
5297;SDS011;14738;42.668;23.250;2022-11-20T00:38:43;2.57;;;1.90;;
5297;SDS011;14738;42.668;23.250;2022-11-20T00:41:10;2.80;;;1.80;;
5297;SDS011;14738;42.668;23.250;2022-11-20T00:43:36;2.53;;;2.00;;
5297;SDS011;14738;42.668;23.250;2022-11-20T00:48:27;1.83;;;1.70;;
5297;SDS011;14738;42.668;23.250;2022-11-20T00:50:52;2.50;;;1.83;;
5297;SDS011;14738;42.668;23.250;2022-11-20T00:53:18;5.23;;;1.90;;
5297;SDS011;14738;42.668;23.250;2022-11-20T00:55:43;4.97;;;3.17;;
5297;SDS011;14738;42.668;23.250;2022-11-20T00:58:16;5.43;;;1.97;;
5297;SDS011;14738;42.668;23.250;2022-11-20T01:00:42;2.40;;;2.17;;
5297;SDS011;14738;42.668;23.250;2022-11-20T01:03:07;4.77;;;2.07;;
5297;SDS011;14738;42.668;23.250;2022-11-20T01:05:34;6.57;;;1.97;;
5297;SDS011;14738;42.668;23.250;2022-11-20T01:07:59;7.70;;;2.03;;
5297;SDS011;14738;42.668;23.250;2022-11-20T01:10:24;1.80;;;1.70;;
5297;SDS011;14738;42.668;23.250;2022-11-20T01:12:49;2.97;;;2.77;;
5297;SDS011;14738;42.668;23.250;2022-11-20T01:15:34;4.57;;;2.30;;
5297;SDS011;14738;42.668;23.250;2022-11-20T01:18:01;2.80;;;2.10;;
5297;SDS011;14738;42.668;23.250;2022-11-20T01:20:27;5.80;;;1.70;;
5297;SDS011;14738;42.668;23.250;2022-11-20T01:22:52;3.40;;;1.80;;
5297;SDS011;14738;42.668;23.250;2022-11-20T01:25:17;2.33;;;2.13;;
5297;SDS011;14738;42.668;23.250;2022-11-20T01:27:43;3.77;;;2.27;;
5297;SDS011;14738;42.668;23.250;2022-11-20T01:30:08;1.97;;;1.80;;
5297;SDS011;14738;42.668;23.250;2022-11-20T01:32:33;4.97;;;2.57;;
5297;SDS011;14738;42.668;23.250;2022-11-20T01:34:59;3.97;;;2.43;;
5297;SDS011;14738;42.668;23.250;2022-11-20T01:37:24;3.67;;;3.00;;
5297;SDS011;14738;42.668;23.250;2022-11-20T01:39:49;2.43;;;2.33;;
5297;SDS011;14738;42.668;23.250;2022-11-20T01:42:14;4.10;;;2.07;;
5297;SDS011;14738;42.668;23.250;2022-11-20T01:44:58;4.83;;;1.70;;
5297;SDS011;14738;42.668;23.250;2022-11-20T01:49:51;5.73;;;2.13;;
5297;SDS011;14738;42.668;23.250;2022-11-20T01:52:19;2.20;;;1.90;;
5297;SDS011;14738;42.668;23.250;2022-11-20T01:54:56;3.90;;;1.93;;
5297;SDS011;14738;42.668;23.250;2022-11-20T01:57:22;5.10;;;1.93;;
5297;SDS011;14738;42.668;23.250;2022-11-20T01:59:52;1.73;;;1.63;;
5297;SDS011;14738;42.668;23.250;2022-11-20T02:02:19;2.93;;;1.63;;
5297;SDS011;14738;42.668;23.250;2022-11-20T02:04:44;2.93;;;1.60;;
5297;SDS011;14738;42.668;23.250;2022-11-20T02:07:10;1.40;;;1.30;;
5297;SDS011;14738;42.668;23.250;2022-11-20T02:09:36;4.73;;;2.13;;
5297;SDS011;14738;42.668;23.250;2022-11-20T02:12:01;1.90;;;1.60;;
5297;SDS011;14738;42.668;23.250;2022-11-20T02:14:27;4.27;;;1.70;;
5297;SDS011;14738;42.668;23.250;2022-11-20T02:16:53;2.70;;;1.50;;
5297;SDS011;14738;42.668;23.250;2022-11-20T02:19:23;3.60;;;1.77;;
5297;SDS011;14738;42.668;23.250;2022-11-20T02:24:34;2.87;;;1.67;;
5297;SDS011;14738;42.668;23.250;2022-11-20T02:27:01;2.20;;;2.00;;
5297;SDS011;14738;42.668;23.250;2022-11-20T02:32:17;2.60;;;1.80;;
5297;SDS011;14738;42.668;23.250;2022-11-20T02:34:42;3.60;;;2.10;;
5297;SDS011;14738;42.668;23.250;2022-11-20T02:37:07;2.13;;;1.93;;
5297;SDS011;14738;42.668;23.250;2022-11-20T02:39:33;2.77;;;1.83;;
5297;SDS011;14738;42.668;23.250;2022-11-20T02:42:00;4.97;;;1.80;;
5297;SDS011;14738;42.668;23.250;2022-11-20T02:44:25;2.83;;;1.80;;
5297;SDS011;14738;42.668;23.250;2022-11-20T02:46:51;2.30;;;2.10;;
5297;SDS011;14738;42.668;23.250;2022-11-20T02:49:16;4.40;;;2.10;;
5297;SDS011;14738;42.668;23.250;2022-11-20T02:51:41;3.77;;;2.27;;
5297;SDS011;14738;42.668;23.250;2022-11-20T02:54:07;4.83;;;1.90;;
5297;SDS011;14738;42.668;23.250;2022-11-20T02:56:32;2.83;;;1.90;;
5297;SDS011;14738;42.668;23.250;2022-11-20T02:58:57;3.20;;;2.10;;
5297;SDS011;14738;42.668;23.250;2022-11-20T03:01:22;2.90;;;2.27;;
5297;SDS011;14738;42.668;23.250;2022-11-20T03:03:48;4.60;;;2.63;;
5297;SDS011;14738;42.668;23.250;2022-11-20T03:06:14;5.27;;;2.67;;
5297;SDS011;14738;42.668;23.250;2022-11-20T03:08:39;2.97;;;2.63;;
5297;SDS011;14738;42.668;23.250;2022-11-20T03:11:05;4.53;;;2.20;;
5297;SDS011;14738;42.668;23.250;2022-11-20T03:13:31;3.17;;;2.10;;
5297;SDS011;14738;42.668;23.250;2022-11-20T03:15:56;5.57;;;1.70;;
5297;SDS011;14738;42.668;23.250;2022-11-20T03:18:21;4.93;;;1.90;;
5297;SDS011;14738;42.668;23.250;2022-11-20T03:20:46;6.40;;;2.50;;
5297;SDS011;14738;42.668;23.250;2022-11-20T03:23:12;4.30;;;2.03;;
5297;SDS011;14738;42.668;23.250;2022-11-20T03:25:37;5.60;;;2.20;;
5297;SDS011;14738;42.668;23.250;2022-11-20T03:28:02;3.20;;;2.00;;
5297;SDS011;14738;42.668;23.250;2022-11-20T03:30:28;1.90;;;1.70;;
5297;SDS011;14738;42.668;23.250;2022-11-20T03:32:53;2.40;;;1.60;;
5297;SDS011;14738;42.668;23.250;2022-11-20T03:35:19;1.90;;;1.80;;
5297;SDS011;14738;42.668;23.250;2022-11-20T03:37:44;4.13;;;1.90;;
5297;SDS011;14738;42.668;23.250;2022-11-20T03:40:10;2.60;;;1.80;;
5297;SDS011;14738;42.668;23.250;2022-11-20T03:42:36;2.43;;;2.23;;
5297;SDS011;14738;42.668;23.250;2022-11-20T03:45:10;1.70;;;1.60;;
5297;SDS011;14738;42.668;23.250;2022-11-20T03:47:35;5.10;;;1.73;;
5297;SDS011;14738;42.668;23.250;2022-11-20T03:50:00;2.23;;;2.03;;
5297;SDS011;14738;42.668;23.250;2022-11-20T03:52:26;3.43;;;2.50;;
5297;SDS011;14738;42.668;23.250;2022-11-20T03:54:51;4.23;;;1.87;;
5297;SDS011;14738;42.668;23.250;2022-11-20T03:57:16;2.23;;;1.83;;
5297;SDS011;14738;42.668;23.250;2022-11-20T03:59:41;3.33;;;1.90;;
5297;SDS011;14738;42.668;23.250;2022-11-20T04:02:07;2.30;;;1.97;;
5297;SDS011;14738;42.668;23.250;2022-11-20T04:04:32;2.00;;;1.70;;
5297;SDS011;14738;42.668;23.250;2022-11-20T04:06:57;2.93;;;2.10;;
5297;SDS011;14738;42.668;23.250;2022-11-20T04:09:22;7.17;;;1.90;;
5297;SDS011;14738;42.668;23.250;2022-11-20T04:11:48;5.13;;;2.20;;
5297;SDS011;14738;42.668;23.250;2022-11-20T04:14:13;4.50;;;2.10;;
5297;SDS011;14738;42.668;23.250;2022-11-20T04:16:39;4.83;;;1.90;;
5297;SDS011;14738;42.668;23.250;2022-11-20T04:19:05;2.90;;;2.10;;
5297;SDS011;14738;42.668;23.250;2022-11-20T04:21:32;4.20;;;2.30;;
5297;SDS011;14738;42.668;23.250;2022-11-20T04:23:57;1.90;;;1.70;;
5297;SDS011;14738;42.668;23.250;2022-11-20T04:26:23;3.13;;;2.03;;
5297;SDS011;14738;42.668;23.250;2022-11-20T04:28:48;3.60;;;1.60;;
5297;SDS011;14738;42.668;23.250;2022-11-20T04:31:15;3.03;;;2.03;;
5297;SDS011;14738;42.668;23.250;2022-11-20T04:33:40;5.80;;;2.07;;
5297;SDS011;14738;42.668;23.250;2022-11-20T04:36:07;1.83;;;1.43;;
5297;SDS011;14738;42.668;23.250;2022-11-20T04:38:34;2.10;;;1.77;;
5297;SDS011;14738;42.668;23.250;2022-11-20T04:41:00;6.83;;;1.70;;
5297;SDS011;14738;42.668;23.250;2022-11-20T04:43:26;1.70;;;1.60;;
5297;SDS011;14738;42.668;23.250;2022-11-20T04:45:52;3.23;;;1.77;;
5297;SDS011;14738;42.668;23.250;2022-11-20T04:48:17;2.30;;;1.47;;
5297;SDS011;14738;42.668;23.250;2022-11-20T04:50:42;4.00;;;1.83;;
5297;SDS011;14738;42.668;23.250;2022-11-20T04:53:08;2.07;;;1.57;;
5297;SDS011;14738;42.668;23.250;2022-11-20T04:55:33;5.00;;;2.20;;
5297;SDS011;14738;42.668;23.250;2022-11-20T04:57:58;1.77;;;1.67;;
5297;SDS011;14738;42.668;23.250;2022-11-20T05:00:23;3.30;;;2.10;;
5297;SDS011;14738;42.668;23.250;2022-11-20T05:02:49;2.20;;;1.80;;
5297;SDS011;14738;42.668;23.250;2022-11-20T05:05:14;2.00;;;1.50;;
5297;SDS011;14738;42.668;23.250;2022-11-20T05:07:39;2.00;;;1.53;;
5297;SDS011;14738;42.668;23.250;2022-11-20T05:10:05;4.60;;;1.43;;
5297;SDS011;14738;42.668;23.250;2022-11-20T05:12:30;2.00;;;1.30;;
5297;SDS011;14738;42.668;23.250;2022-11-20T05:14:56;1.50;;;1.40;;
5297;SDS011;14738;42.668;23.250;2022-11-20T05:17:21;2.70;;;1.43;;
5297;SDS011;14738;42.668;23.250;2022-11-20T05:19:46;1.30;;;1.20;;
5297;SDS011;14738;42.668;23.250;2022-11-20T05:22:11;2.97;;;1.37;;
5297;SDS011;14738;42.668;23.250;2022-11-20T05:24:37;1.80;;;1.70;;
5297;SDS011;14738;42.668;23.250;2022-11-20T05:27:02;2.07;;;1.73;;
5297;SDS011;14738;42.668;23.250;2022-11-20T05:29:27;3.80;;;1.57;;
5297;SDS011;14738;42.668;23.250;2022-11-20T05:31:53;1.73;;;1.63;;
5297;SDS011;14738;42.668;23.250;2022-11-20T05:34:18;2.93;;;1.77;;
5297;SDS011;14738;42.668;23.250;2022-11-20T05:36:43;5.70;;;1.43;;
5297;SDS011;14738;42.668;23.250;2022-11-20T05:39:08;2.50;;;1.80;;
5297;SDS011;14738;42.668;23.250;2022-11-20T05:41:34;6.20;;;2.13;;
5297;SDS011;14738;42.668;23.250;2022-11-20T05:43:59;1.67;;;1.57;;
5297;SDS011;14738;42.668;23.250;2022-11-20T05:46:25;1.97;;;1.87;;
5297;SDS011;14738;42.668;23.250;2022-11-20T05:48:50;2.77;;;1.40;;
5297;SDS011;14738;42.668;23.250;2022-11-20T05:51:16;1.80;;;1.60;;
5297;SDS011;14738;42.668;23.250;2022-11-20T05:53:42;3.43;;;1.83;;
5297;SDS011;14738;42.668;23.250;2022-11-20T05:56:09;2.03;;;1.50;;
5297;SDS011;14738;42.668;23.250;2022-11-20T05:58:35;2.20;;;1.77;;
5297;SDS011;14738;42.668;23.250;2022-11-20T06:01:08;1.80;;;1.27;;
5297;SDS011;14738;42.668;23.250;2022-11-20T06:03:34;6.60;;;2.40;;
5297;SDS011;14738;42.668;23.250;2022-11-20T06:05:59;2.50;;;1.77;;
5297;SDS011;14738;42.668;23.250;2022-11-20T06:08:25;3.17;;;1.70;;
5297;SDS011;14738;42.668;23.250;2022-11-20T06:10:50;1.87;;;1.77;;
5297;SDS011;14738;42.668;23.250;2022-11-20T06:13:15;3.17;;;1.83;;
5297;SDS011;14738;42.668;23.250;2022-11-20T06:15:41;4.50;;;1.60;;
5297;SDS011;14738;42.668;23.250;2022-11-20T06:18:06;2.93;;;1.63;;
5297;SDS011;14738;42.668;23.250;2022-11-20T06:20:31;3.43;;;2.00;;
5297;SDS011;14738;42.668;23.250;2022-11-20T06:22:56;2.30;;;1.67;;
5297;SDS011;14738;42.668;23.250;2022-11-20T06:25:22;3.37;;;1.80;;
5297;SDS011;14738;42.668;23.250;2022-11-20T06:27:47;2.63;;;1.40;;
5297;SDS011;14738;42.668;23.250;2022-11-20T06:30:12;4.37;;;1.53;;
5297;SDS011;14738;42.668;23.250;2022-11-20T06:32:37;2.20;;;2.00;;
5297;SDS011;14738;42.668;23.250;2022-11-20T06:35:06;1.77;;;1.67;;
5297;SDS011;14738;42.668;23.250;2022-11-20T06:37:31;1.53;;;1.40;;
5297;SDS011;14738;42.668;23.250;2022-11-20T06:39:56;1.50;;;1.40;;
5297;SDS011;14738;42.668;23.250;2022-11-20T06:42:21;1.90;;;1.80;;
5297;SDS011;14738;42.668;23.250;2022-11-20T06:44:47;1.80;;;1.60;;
5297;SDS011;14738;42.668;23.250;2022-11-20T06:47:12;4.30;;;1.43;;
5297;SDS011;14738;42.668;23.250;2022-11-20T06:49:37;2.60;;;1.50;;
5297;SDS011;14738;42.668;23.250;2022-11-20T06:52:03;2.00;;;1.37;;
5297;SDS011;14738;42.668;23.250;2022-11-20T06:54:28;4.27;;;1.90;;
5297;SDS011;14738;42.668;23.250;2022-11-20T06:56:54;6.70;;;1.80;;
5297;SDS011;14738;42.668;23.250;2022-11-20T06:59:19;2.40;;;1.70;;
5297;SDS011;14738;42.668;23.250;2022-11-20T07:01:44;3.20;;;1.90;;
5297;SDS011;14738;42.668;23.250;2022-11-20T07:04:09;5.03;;;1.77;;
5297;SDS011;14738;42.668;23.250;2022-11-20T07:06:35;3.20;;;1.73;;
5297;SDS011;14738;42.668;23.250;2022-11-20T07:09:00;2.10;;;1.43;;
5297;SDS011;14738;42.668;23.250;2022-11-20T07:11:26;3.30;;;1.93;;
5297;SDS011;14738;42.668;23.250;2022-11-20T07:13:52;2.83;;;1.80;;
5297;SDS011;14738;42.668;23.250;2022-11-20T07:16:17;2.10;;;1.53;;
5297;SDS011;14738;42.668;23.250;2022-11-20T07:18:42;5.70;;;2.00;;
5297;SDS011;14738;42.668;23.250;2022-11-20T07:21:09;1.70;;;1.50;;
5297;SDS011;14738;42.668;23.250;2022-11-20T07:23:35;4.90;;;1.73;;
5297;SDS011;14738;42.668;23.250;2022-11-20T07:26:04;5.47;;;2.40;;
5297;SDS011;14738;42.668;23.250;2022-11-20T07:28:30;6.00;;;1.90;;
5297;SDS011;14738;42.668;23.250;2022-11-20T07:30:55;6.40;;;2.00;;
5297;SDS011;14738;42.668;23.250;2022-11-20T07:33:20;3.83;;;1.70;;
5297;SDS011;14738;42.668;23.250;2022-11-20T07:35:46;10.10;;;2.10;;
5297;SDS011;14738;42.668;23.250;2022-11-20T07:38:11;2.20;;;1.93;;
5297;SDS011;14738;42.668;23.250;2022-11-20T07:40:36;1.90;;;1.70;;
5297;SDS011;14738;42.668;23.250;2022-11-20T07:43:02;6.80;;;2.03;;
5297;SDS011;14738;42.668;23.250;2022-11-20T07:45:27;3.00;;;1.70;;
5297;SDS011;14738;42.668;23.250;2022-11-20T07:47:52;2.97;;;1.80;;
5297;SDS011;14738;42.668;23.250;2022-11-20T07:50:18;3.53;;;1.83;;
5297;SDS011;14738;42.668;23.250;2022-11-20T07:52:43;2.27;;;2.03;;
5297;SDS011;14738;42.668;23.250;2022-11-20T07:55:09;3.33;;;1.70;;
5297;SDS011;14738;42.668;23.250;2022-11-20T07:57:34;4.23;;;2.20;;
5297;SDS011;14738;42.668;23.250;2022-11-20T08:00:00;5.10;;;2.07;;
5297;SDS011;14738;42.668;23.250;2022-11-20T08:02:25;5.10;;;1.63;;
5297;SDS011;14738;42.668;23.250;2022-11-20T08:04:50;8.60;;;2.00;;
5297;SDS011;14738;42.668;23.250;2022-11-20T08:07:16;5.27;;;1.70;;
5297;SDS011;14738;42.668;23.250;2022-11-20T08:09:41;5.83;;;2.60;;
5297;SDS011;14738;42.668;23.250;2022-11-20T08:12:06;7.80;;;1.87;;
5297;SDS011;14738;42.668;23.250;2022-11-20T08:14:50;1.90;;;1.70;;
5297;SDS011;14738;42.668;23.250;2022-11-20T08:17:15;8.57;;;2.00;;
5297;SDS011;14738;42.668;23.250;2022-11-20T08:19:41;8.07;;;2.20;;
5297;SDS011;14738;42.668;23.250;2022-11-20T08:22:06;7.50;;;2.27;;
5297;SDS011;14738;42.668;23.250;2022-11-20T08:24:31;3.47;;;2.13;;
5297;SDS011;14738;42.668;23.250;2022-11-20T08:26:57;3.07;;;1.60;;
5297;SDS011;14738;42.668;23.250;2022-11-20T08:29:23;4.97;;;1.83;;
5297;SDS011;14738;42.668;23.250;2022-11-20T08:31:48;5.03;;;2.10;;
5297;SDS011;14738;42.668;23.250;2022-11-20T08:34:13;8.53;;;2.80;;
5297;SDS011;14738;42.668;23.250;2022-11-20T08:36:38;8.00;;;2.87;;
5297;SDS011;14738;42.668;23.250;2022-11-20T08:39:04;6.00;;;2.40;;
5297;SDS011;14738;42.668;23.250;2022-11-20T08:41:29;5.67;;;2.43;;
5297;SDS011;14738;42.668;23.250;2022-11-20T08:44:01;3.70;;;2.50;;
5297;SDS011;14738;42.668;23.250;2022-11-20T08:46:36;6.23;;;2.97;;
5297;SDS011;14738;42.668;23.250;2022-11-20T08:49:05;7.90;;;3.60;;
5297;SDS011;14738;42.668;23.250;2022-11-20T08:51:31;4.20;;;3.03;;
5297;SDS011;14738;42.668;23.250;2022-11-20T08:53:56;6.13;;;3.37;;
5297;SDS011;14738;42.668;23.250;2022-11-20T08:56:21;9.10;;;4.03;;
5297;SDS011;14738;42.668;23.250;2022-11-20T08:58:47;5.50;;;3.60;;
5297;SDS011;14738;42.668;23.250;2022-11-20T09:01:12;7.57;;;4.27;;
5297;SDS011;14738;42.668;23.250;2022-11-20T09:03:37;6.70;;;4.10;;
5297;SDS011;14738;42.668;23.250;2022-11-20T09:06:03;5.63;;;3.90;;
5297;SDS011;14738;42.668;23.250;2022-11-20T09:08:29;6.13;;;3.97;;
5297;SDS011;14738;42.668;23.250;2022-11-20T09:10:55;4.33;;;3.10;;
5297;SDS011;14738;42.668;23.250;2022-11-20T09:13:21;11.23;;;3.60;;
5297;SDS011;14738;42.668;23.250;2022-11-20T09:15:47;8.83;;;3.20;;
5297;SDS011;14738;42.668;23.250;2022-11-20T09:18:12;9.93;;;3.33;;
5297;SDS011;14738;42.668;23.250;2022-11-20T09:20:38;7.27;;;3.60;;
5297;SDS011;14738;42.668;23.250;2022-11-20T09:23:03;5.73;;;3.60;;
5297;SDS011;14738;42.668;23.250;2022-11-20T09:25:28;9.20;;;3.67;;
5297;SDS011;14738;42.668;23.250;2022-11-20T09:27:57;4.73;;;3.47;;
5297;SDS011;14738;42.668;23.250;2022-11-20T09:30:22;3.73;;;2.50;;
5297;SDS011;14738;42.668;23.250;2022-11-20T09:32:47;3.47;;;2.20;;
5297;SDS011;14738;42.668;23.250;2022-11-20T09:35:12;3.10;;;2.60;;
5297;SDS011;14738;42.668;23.250;2022-11-20T09:37:39;3.43;;;3.13;;
5297;SDS011;14738;42.668;23.250;2022-11-20T09:40:04;6.33;;;3.40;;
5297;SDS011;14738;42.668;23.250;2022-11-20T09:47:26;6.70;;;3.10;;
5297;SDS011;14738;42.668;23.250;2022-11-20T09:54:55;21.23;;;10.23;;
5297;SDS011;14738;42.668;23.250;2022-11-20T09:57:21;36.80;;;21.33;;
5297;SDS011;14738;42.668;23.250;2022-11-20T10:00:02;42.83;;;21.13;;
5297;SDS011;14738;42.668;23.250;2022-11-20T10:02:28;34.70;;;16.80;;
5297;SDS011;14738;42.668;23.250;2022-11-20T10:05:38;17.23;;;10.13;;
5297;SDS011;14738;42.668;23.250;2022-11-20T10:07:53;18.83;;;8.07;;
5297;SDS011;14738;42.668;23.250;2022-11-20T10:10:26;15.30;;;6.40;;
5297;SDS011;14738;42.668;23.250;2022-11-20T10:13:07;11.07;;;5.33;;
5297;SDS011;14738;42.668;23.250;2022-11-20T10:25:38;18.27;;;7.63;;
5297;SDS011;14738;42.668;23.250;2022-11-20T10:30:40;6.07;;;3.43;;
5297;SDS011;14738;42.668;23.250;2022-11-20T10:33:11;13.03;;;5.07;;
5297;SDS011;14738;42.668;23.250;2022-11-20T10:35:40;7.90;;;3.90;;
5297;SDS011;14738;42.668;23.250;2022-11-20T10:38:14;11.50;;;3.80;;
5297;SDS011;14738;42.668;23.250;2022-11-20T10:40:42;12.20;;;4.17;;
5297;SDS011;14738;42.668;23.250;2022-11-20T10:45:45;20.77;;;4.90;;
5297;SDS011;14738;42.668;23.250;2022-11-20T10:48:16;16.20;;;4.23;;
5297;SDS011;14738;42.668;23.250;2022-11-20T10:53:40;9.67;;;4.60;;
5297;SDS011;14738;42.668;23.250;2022-11-20T10:56:53;8.20;;;4.37;;
5297;SDS011;14738;42.668;23.250;2022-11-20T11:01:24;8.27;;;2.93;;
5297;SDS011;14738;42.668;23.250;2022-11-20T11:03:51;12.03;;;3.53;;
5297;SDS011;14738;42.668;23.250;2022-11-20T11:06:21;10.53;;;4.27;;
5297;SDS011;14738;42.668;23.250;2022-11-20T11:08:47;5.07;;;2.70;;
5297;SDS011;14738;42.668;23.250;2022-11-20T11:13:39;5.33;;;2.07;;
5297;SDS011;14738;42.668;23.250;2022-11-20T11:16:04;2.53;;;1.67;;
5297;SDS011;14738;42.668;23.250;2022-11-20T11:18:31;1.70;;;1.27;;
5297;SDS011;14738;42.668;23.250;2022-11-20T11:20:57;3.93;;;2.50;;
5297;SDS011;14738;42.668;23.250;2022-11-20T11:23:28;4.27;;;2.00;;
5297;SDS011;14738;42.668;23.250;2022-11-20T11:25:59;3.00;;;1.97;;
5297;SDS011;14738;42.668;23.250;2022-11-20T11:28:24;3.70;;;3.40;;
5297;SDS011;14738;42.668;23.250;2022-11-20T11:30:52;2.87;;;2.63;;
5297;SDS011;14738;42.668;23.250;2022-11-20T11:33:22;7.53;;;5.67;;
5297;SDS011;14738;42.668;23.250;2022-11-20T11:35:50;5.00;;;3.43;;
5297;SDS011;14738;42.668;23.250;2022-11-20T11:38:26;3.90;;;2.27;;
5297;SDS011;14738;42.668;23.250;2022-11-20T11:40:53;3.07;;;2.17;;
5297;SDS011;14738;42.668;23.250;2022-11-20T11:43:20;6.30;;;4.90;;
5297;SDS011;14738;42.668;23.250;2022-11-20T11:46:24;4.50;;;3.20;;
5297;SDS011;14738;42.668;23.250;2022-11-20T11:51:38;5.97;;;3.97;;
5297;SDS011;14738;42.668;23.250;2022-11-20T11:54:11;4.47;;;4.07;;
5297;SDS011;14738;42.668;23.250;2022-11-20T11:56:38;4.00;;;2.60;;
5297;SDS011;14738;42.668;23.250;2022-11-20T11:59:04;4.73;;;2.40;;
5297;SDS011;14738;42.668;23.250;2022-11-20T12:01:42;7.33;;;2.10;;
5297;SDS011;14738;42.668;23.250;2022-11-20T12:04:16;4.10;;;1.97;;
5297;SDS011;14738;42.668;23.250;2022-11-20T12:06:44;5.87;;;3.83;;
5297;SDS011;14738;42.668;23.250;2022-11-20T12:09:10;6.63;;;2.40;;
5297;SDS011;14738;42.668;23.250;2022-11-20T12:11:56;2.30;;;1.93;;
5297;SDS011;14738;42.668;23.250;2022-11-20T12:14:32;2.60;;;2.30;;
5297;SDS011;14738;42.668;23.250;2022-11-20T12:16:59;2.20;;;1.90;;
5297;SDS011;14738;42.668;23.250;2022-11-20T12:19:25;3.27;;;2.10;;
5297;SDS011;14738;42.668;23.250;2022-11-20T12:22:05;2.67;;;1.90;;
5297;SDS011;14738;42.668;23.250;2022-11-20T12:24:49;1.63;;;1.37;;
5297;SDS011;14738;42.668;23.250;2022-11-20T12:27:26;6.67;;;2.43;;
5297;SDS011;14738;42.668;23.250;2022-11-20T12:34:56;1.73;;;1.27;;
5297;SDS011;14738;42.668;23.250;2022-11-20T12:39:54;7.63;;;1.70;;
5297;SDS011;14738;42.668;23.250;2022-11-20T12:42:39;4.47;;;2.10;;
5297;SDS011;14738;42.668;23.250;2022-11-20T12:53:08;4.27;;;2.10;;
5297;SDS011;14738;42.668;23.250;2022-11-20T12:58:11;1.90;;;1.60;;
5297;SDS011;14738;42.668;23.250;2022-11-20T13:00:40;5.90;;;3.10;;
5297;SDS011;14738;42.668;23.250;2022-11-20T13:03:13;4.17;;;2.50;;
5297;SDS011;14738;42.668;23.250;2022-11-20T13:05:53;2.80;;;2.03;;
5297;SDS011;14738;42.668;23.250;2022-11-20T13:16:24;7.27;;;3.70;;
5297;SDS011;14738;42.668;23.250;2022-11-20T13:18:29;10.63;;;4.53;;
5297;SDS011;14738;42.668;23.250;2022-11-20T13:20:59;10.80;;;6.20;;
5297;SDS011;14738;42.668;23.250;2022-11-20T13:23:27;17.93;;;9.87;;
5297;SDS011;14738;42.668;23.250;2022-11-20T13:26:03;11.97;;;8.97;;
5297;SDS011;14738;42.668;23.250;2022-11-20T13:28:29;9.80;;;8.40;;
5297;SDS011;14738;42.668;23.250;2022-11-20T13:30:54;15.57;;;7.20;;
5297;SDS011;14738;42.668;23.250;2022-11-20T13:33:25;12.67;;;7.90;;
5297;SDS011;14738;42.668;23.250;2022-11-20T13:35:57;9.60;;;7.03;;
5297;SDS011;14738;42.668;23.250;2022-11-20T13:38:23;10.93;;;7.13;;
5297;SDS011;14738;42.668;23.250;2022-11-20T13:40:52;10.07;;;6.90;;
5297;SDS011;14738;42.668;23.250;2022-11-20T13:43:35;10.53;;;7.10;;
5297;SDS011;14738;42.668;23.250;2022-11-20T13:46:03;8.30;;;7.43;;
5297;SDS011;14738;42.668;23.250;2022-11-20T13:48:30;12.93;;;7.63;;
5297;SDS011;14738;42.668;23.250;2022-11-20T13:50:58;9.23;;;8.17;;
5297;SDS011;14738;42.668;23.250;2022-11-20T14:01:19;7.13;;;4.90;;
5297;SDS011;14738;42.668;23.250;2022-11-20T14:03:46;8.70;;;4.07;;
5297;SDS011;14738;42.668;23.250;2022-11-20T14:06:13;6.23;;;4.70;;
5297;SDS011;14738;42.668;23.250;2022-11-20T14:08:40;9.43;;;5.40;;
5297;SDS011;14738;42.668;23.250;2022-11-20T14:11:16;6.80;;;4.50;;
5297;SDS011;14738;42.668;23.250;2022-11-20T14:16:19;7.00;;;4.90;;
5297;SDS011;14738;42.668;23.250;2022-11-20T14:18:44;7.77;;;4.93;;
5297;SDS011;14738;42.668;23.250;2022-11-20T14:21:09;5.83;;;5.20;;
5297;SDS011;14738;42.668;23.250;2022-11-20T14:23:35;5.53;;;4.80;;
5297;SDS011;14738;42.668;23.250;2022-11-20T14:26:00;3.90;;;3.57;;
5297;SDS011;14738;42.668;23.250;2022-11-20T14:28:26;5.43;;;2.63;;
5297;SDS011;14738;42.668;23.250;2022-11-20T14:30:52;4.97;;;3.70;;
5297;SDS011;14738;42.668;23.250;2022-11-20T14:33:18;4.17;;;2.83;;
5297;SDS011;14738;42.668;23.250;2022-11-20T14:35:48;3.05;;;2.70;;
5297;SDS011;14738;42.668;23.250;2022-11-20T14:38:15;3.23;;;2.57;;
5297;SDS011;14738;42.668;23.250;2022-11-20T14:40:41;2.47;;;2.33;;
5297;SDS011;14738;42.668;23.250;2022-11-20T14:45:41;6.40;;;3.03;;
5297;SDS011;14738;42.668;23.250;2022-11-20T14:48:08;3.07;;;2.13;;
5297;SDS011;14738;42.668;23.250;2022-11-20T14:50:34;2.57;;;2.30;;
5297;SDS011;14738;42.668;23.250;2022-11-20T14:53:00;2.70;;;2.50;;
5297;SDS011;14738;42.668;23.250;2022-11-20T14:55:44;2.60;;;2.40;;
5297;SDS011;14738;42.668;23.250;2022-11-20T14:58:22;3.20;;;3.00;;
5297;SDS011;14738;42.668;23.250;2022-11-20T15:03:19;2.90;;;2.67;;
5297;SDS011;14738;42.668;23.250;2022-11-20T15:05:46;3.30;;;3.00;;
5297;SDS011;14738;42.668;23.250;2022-11-20T15:08:12;4.03;;;3.60;;
5297;SDS011;14738;42.668;23.250;2022-11-20T15:10:38;4.37;;;3.73;;
5297;SDS011;14738;42.668;23.250;2022-11-20T15:13:14;5.77;;;3.90;;
5297;SDS011;14738;42.668;23.250;2022-11-20T15:15:45;4.70;;;4.30;;
5297;SDS011;14738;42.668;23.250;2022-11-20T15:18:15;3.80;;;3.43;;
5297;SDS011;14738;42.668;23.250;2022-11-20T15:20:41;3.60;;;3.30;;
5297;SDS011;14738;42.668;23.250;2022-11-20T15:23:14;5.73;;;5.23;;
5297;SDS011;14738;42.668;23.250;2022-11-20T15:25:40;4.17;;;3.87;;
5297;SDS011;14738;42.668;23.250;2022-11-20T15:28:09;3.17;;;2.97;;
5297;SDS011;14738;42.668;23.250;2022-11-20T15:30:37;6.60;;;5.83;;
5297;SDS011;14738;42.668;23.250;2022-11-20T15:33:02;5.10;;;4.37;;
5297;SDS011;14738;42.668;23.250;2022-11-20T15:35:28;5.00;;;4.40;;
5297;SDS011;14738;42.668;23.250;2022-11-20T15:37:53;7.97;;;3.70;;
5297;SDS011;14738;42.668;23.250;2022-11-20T15:40:18;9.70;;;5.40;;
5297;SDS011;14738;42.668;23.250;2022-11-20T15:42:43;8.40;;;4.90;;
5297;SDS011;14738;42.668;23.250;2022-11-20T15:45:27;6.83;;;4.43;;
5297;SDS011;14738;42.668;23.250;2022-11-20T15:47:54;6.80;;;3.60;;
5297;SDS011;14738;42.668;23.250;2022-11-20T15:50:19;4.90;;;4.40;;
5297;SDS011;14738;42.668;23.250;2022-11-20T15:52:45;4.73;;;4.33;;
5297;SDS011;14738;42.668;23.250;2022-11-20T15:55:10;6.73;;;4.80;;
5297;SDS011;14738;42.668;23.250;2022-11-20T15:57:35;4.67;;;4.27;;
5297;SDS011;14738;42.668;23.250;2022-11-20T16:00:01;6.53;;;5.23;;
5297;SDS011;14738;42.668;23.250;2022-11-20T16:02:27;5.40;;;4.73;;
5297;SDS011;14738;42.668;23.250;2022-11-20T16:04:52;6.73;;;3.77;;
5297;SDS011;14738;42.668;23.250;2022-11-20T16:07:17;3.50;;;3.13;;
5297;SDS011;14738;42.668;23.250;2022-11-20T16:09:43;3.70;;;3.33;;
5297;SDS011;14738;42.668;23.250;2022-11-20T16:12:09;4.20;;;3.80;;
5297;SDS011;14738;42.668;23.250;2022-11-20T16:14:54;4.53;;;4.03;;